Time;durP1;ratioP1;P1;durP2;ratioP2;P2;SDS_P1;SDS_P2;PMS_P1;PMS_P2;Temp;Humidity;BMP_temperature;BMP_pressure;BME280_temperature;BME280_humidity;BME280_pressure;Samples;Min_cycle;Max_cycle;Signal;HPM_P1;HPM_P2
2023/12/13 00:01:05;;;;;;;5.63;1.70;;;;;;;;;;4997629;28;20061;-65
2023/12/13 00:03:32;;;;;;;6.18;1.40;;;;;;;;;;4997070;28;20061;-66
2023/12/13 00:05:59;;;;;;;2.28;1.20;;;;;;;;;;4990584;28;20136;-66
2023/12/13 00:08:25;;;;;;;5.00;1.85;;;;;;;;;;4994129;28;20066;-67
2023/12/13 00:10:58;;;;;;;3.15;1.70;;;;;;;;;;4999472;28;20085;-66
2023/12/13 00:13:26;;;;;;;3.85;1.70;;;;;;;;;;5000375;28;20050;-67
2023/12/13 00:15:53;;;;;;;4.40;1.53;;;;;;;;;;4994490;28;20061;-66
2023/12/13 00:18:19;;;;;;;3.65;1.70;;;;;;;;;;4992120;28;20061;-65
2023/12/13 00:20:46;;;;;;;4.88;1.75;;;;;;;;;;4998778;28;20066;-66
2023/12/13 00:23:13;;;;;;;6.53;2.85;;;;;;;;;;5011544;28;20058;-67
2023/12/13 00:25:40;;;;;;;4.88;2.08;;;;;;;;;;4994765;28;20133;-66
2023/12/13 00:28:08;;;;;;;6.22;2.75;;;;;;;;;;5000698;28;20054;-65
2023/12/13 00:30:35;;;;;;;4.55;1.65;;;;;;;;;;4999125;28;20050;-67
2023/12/13 00:33:02;;;;;;;3.60;1.58;;;;;;;;;;4996186;28;20089;-66
2023/12/13 00:35:28;;;;;;;5.47;1.83;;;;;;;;;;4996378;28;20117;-64
2023/12/13 00:37:55;;;;;;;2.22;1.30;;;;;;;;;;4992595;28;20085;-66
2023/12/13 00:40:22;;;;;;;7.18;1.55;;;;;;;;;;4996616;28;20058;-65
2023/12/13 00:42:49;;;;;;;5.70;2.17;;;;;;;;;;4995274;28;20057;-67
2023/12/13 00:45:17;;;;;;;8.65;2.33;;;;;;;;;;4994547;28;20068;-68
2023/12/13 00:47:44;;;;;;;6.30;3.28;;;;;;;;;;4995748;28;20073;-66
2023/12/13 00:50:10;;;;;;;8.93;3.38;;;;;;;;;;4982110;28;20050;-67
2023/12/13 00:52:37;;;;;;;4.60;1.90;;;;;;;;;;4996501;28;20073;-66
2023/12/13 00:55:04;;;;;;;6.15;1.85;;;;;;;;;;4992351;28;20062;-66
2023/12/13 00:57:31;;;;;;;5.15;1.70;;;;;;;;;;4996767;28;20086;-65
2023/12/13 00:59:58;;;;;;;4.85;1.73;;;;;;;;;;4992088;28;20070;-66
2023/12/13 01:02:28;;;;;;;5.22;1.58;;;;;;;;;;5001728;28;20062;-67
2023/12/13 01:04:54;;;;;;;4.05;1.48;;;;;;;;;;4993026;28;20139;-65
2023/12/13 01:07:21;;;;;;;4.47;1.83;;;;;;;;;;4998205;28;20089;-66
2023/12/13 01:09:48;;;;;;;4.18;1.80;;;;;;;;;;4996853;28;20382;-65
2023/12/13 01:12:15;;;;;;;5.57;1.85;;;;;;;;;;4986974;28;21710;-65
2023/12/13 01:14:41;;;;;;;4.43;2.00;;;;;;;;;;4994731;28;20060;-66
2023/12/13 01:17:10;;;;;;;3.28;1.63;;;;;;;;;;4995976;28;20062;-66
2023/12/13 01:19:38;;;;;;;6.07;1.98;;;;;;;;;;5001241;28;20050;-64
2023/12/13 01:22:05;;;;;;;9.52;1.80;;;;;;;;;;4996910;28;20061;-67
2023/12/13 01:24:31;;;;;;;2.85;1.58;;;;;;;;;;5013299;28;20136;-65
2023/12/13 01:26:58;;;;;;;4.68;1.77;;;;;;;;;;4997756;28;20054;-66
2023/12/13 01:29:24;;;;;;;7.43;1.60;;;;;;;;;;5004029;28;20050;-67
2023/12/13 01:31:51;;;;;;;2.95;1.35;;;;;;;;;;4996958;28;20060;-66
2023/12/13 01:34:18;;;;;;;4.20;1.50;;;;;;;;;;4994511;28;20053;-65
2023/12/13 01:36:46;;;;;;;5.25;1.75;;;;;;;;;;4995270;28;20125;-68
2023/12/13 01:39:13;;;;;;;3.78;1.70;;;;;;;;;;5004421;28;20058;-68
2023/12/13 01:41:42;;;;;;;6.25;1.70;;;;;;;;;;5002963;28;20058;-66
2023/12/13 01:44:09;;;;;;;5.25;1.27;;;;;;;;;;4994143;28;20136;-67
2023/12/13 01:46:36;;;;;;;7.07;1.63;;;;;;;;;;4997403;28;20061;-65
2023/12/13 01:49:05;;;;;;;7.72;1.52;;;;;;;;;;4998760;28;21208;-66
2023/12/13 01:51:33;;;;;;;6.93;1.40;;;;;;;;;;5003597;28;20115;-67
2023/12/13 01:54:03;;;;;;;5.90;1.30;;;;;;;;;;4993279;28;20144;-66
2023/12/13 01:56:30;;;;;;;11.30;1.50;;;;;;;;;;4997057;28;20140;-67
2023/12/13 01:58:57;;;;;;;5.13;1.70;;;;;;;;;;4981225;28;20054;-67
2023/12/13 02:01:24;;;;;;;4.90;1.80;;;;;;;;;;4980631;28;20285;-65
2023/12/13 02:03:51;;;;;;;5.50;1.80;;;;;;;;;;4977524;28;20050;-67
2023/12/13 02:06:17;;;;;;;6.55;2.17;;;;;;;;;;4991013;28;20109;-65
2023/12/13 02:08:44;;;;;;;8.18;2.28;;;;;;;;;;4996520;28;20118;-65
2023/12/13 02:11:13;;;;;;;8.82;1.80;;;;;;;;;;4999113;28;20128;-67
2023/12/13 02:13:40;;;;;;;6.57;1.83;;;;;;;;;;5004176;28;20081;-65
2023/12/13 02:16:08;;;;;;;8.50;1.70;;;;;;;;;;4989909;28;20156;-65
2023/12/13 02:18:35;;;;;;;4.65;1.50;;;;;;;;;;5002016;28;20054;-67
2023/12/13 02:21:02;;;;;;;3.00;1.23;;;;;;;;;;4999798;28;20062;-67
2023/12/13 02:23:30;;;;;;;5.00;1.58;;;;;;;;;;4997781;28;20088;-67
2023/12/13 02:25:59;;;;;;;7.32;1.50;;;;;;;;;;4990300;28;20112;-67
2023/12/13 02:28:26;;;;;;;1.73;1.10;;;;;;;;;;5000962;28;20129;-66
2023/12/13 02:30:55;;;;;;;3.13;1.30;;;;;;;;;;5001035;28;20050;-66
2023/12/13 02:33:23;;;;;;;4.47;1.45;;;;;;;;;;4997782;28;20078;-67
2023/12/13 02:35:50;;;;;;;2.13;1.23;;;;;;;;;;4993500;28;20122;-67
2023/12/13 02:38:17;;;;;;;7.43;1.52;;;;;;;;;;4995912;28;20133;-65
2023/12/13 02:40:45;;;;;;;8.07;1.70;;;;;;;;;;4998436;28;20054;-66
2023/12/13 02:43:11;;;;;;;2.88;1.35;;;;;;;;;;5000079;28;20082;-64
2023/12/13 02:45:38;;;;;;;2.92;1.25;;;;;;;;;;4996647;28;20052;-65
2023/12/13 02:48:05;;;;;;;9.18;1.90;;;;;;;;;;4988458;28;20081;-67
2023/12/13 02:50:36;;;;;;;7.40;1.55;;;;;;;;;;4999041;28;21018;-67
2023/12/13 02:53:03;;;;;;;3.90;1.40;;;;;;;;;;4998003;28;20046;-65
2023/12/13 02:55:30;;;;;;;3.50;1.45;;;;;;;;;;5006553;28;20070;-67
2023/12/13 02:57:58;;;;;;;3.83;1.77;;;;;;;;;;4997147;28;20132;-67
2023/12/13 03:00:24;;;;;;;2.85;1.42;;;;;;;;;;5002688;28;20156;-65
2023/12/13 03:02:51;;;;;;;2.97;1.40;;;;;;;;;;5001101;28;20057;-65
2023/12/13 03:05:18;;;;;;;4.50;1.58;;;;;;;;;;4960442;28;20060;-64
2023/12/13 03:07:45;;;;;;;2.65;1.35;;;;;;;;;;4980877;28;20137;-67
2023/12/13 03:10:11;;;;;;;2.42;1.30;;;;;;;;;;4976334;28;20065;-68
2023/12/13 03:12:39;;;;;;;2.97;1.45;;;;;;;;;;4975025;28;20063;-67
2023/12/13 03:15:08;;;;;;;4.55;1.52;;;;;;;;;;4986377;28;20145;-67
2023/12/13 03:17:35;;;;;;;4.88;1.48;;;;;;;;;;4998955;28;20085;-65
2023/12/13 03:20:02;;;;;;;4.90;1.42;;;;;;;;;;4999832;28;20144;-67
2023/12/13 03:22:29;;;;;;;6.22;1.70;;;;;;;;;;4992437;28;20062;-65
2023/12/13 03:24:57;;;;;;;4.20;1.75;;;;;;;;;;4991972;28;20065;-67
2023/12/13 03:27:24;;;;;;;3.47;1.53;;;;;;;;;;5000553;28;20108;-66
2023/12/13 03:29:50;;;;;;;7.13;2.20;;;;;;;;;;4997218;28;20062;-65
2023/12/13 03:32:18;;;;;;;4.25;2.10;;;;;;;;;;4992478;28;20050;-67
2023/12/13 03:34:45;;;;;;;5.68;2.03;;;;;;;;;;4996105;28;20115;-66
2023/12/13 03:37:13;;;;;;;4.40;2.13;;;;;;;;;;4998365;28;20277;-65
2023/12/13 03:39:40;;;;;;;3.85;1.77;;;;;;;;;;4992914;28;20054;-66
2023/12/13 03:42:07;;;;;;;5.18;2.10;;;;;;;;;;4993350;28;20077;-67
2023/12/13 03:44:33;;;;;;;7.97;2.50;;;;;;;;;;4994652;28;20050;-66
2023/12/13 03:47:00;;;;;;;5.38;2.10;;;;;;;;;;4996286;28;20085;-67
2023/12/13 03:49:28;;;;;;;6.38;2.22;;;;;;;;;;4993754;28;20112;-65
2023/12/13 03:51:55;;;;;;;5.95;2.35;;;;;;;;;;4996830;28;20062;-65
2023/12/13 03:54:21;;;;;;;9.55;2.53;;;;;;;;;;4988014;28;20085;-67
2023/12/13 03:56:48;;;;;;;6.72;2.55;;;;;;;;;;5001294;28;20161;-65
2023/12/13 03:59:15;;;;;;;6.22;2.60;;;;;;;;;;4999545;28;20053;-65
2023/12/13 04:01:42;;;;;;;10.18;2.55;;;;;;;;;;4995650;28;20092;-66
2023/12/13 04:04:09;;;;;;;10.45;2.95;;;;;;;;;;4991164;28;20074;-67
2023/12/13 04:06:37;;;;;;;5.63;2.47;;;;;;;;;;5010366;28;20053;-68
2023/12/13 04:09:04;;;;;;;5.53;2.28;;;;;;;;;;5001366;28;20100;-67
2023/12/13 04:11:30;;;;;;;4.93;2.30;;;;;;;;;;4996737;28;20099;-66
2023/12/13 04:13:57;;;;;;;5.68;2.58;;;;;;;;;;4993022;28;20061;-66
2023/12/13 04:16:23;;;;;;;9.00;2.92;;;;;;;;;;4995841;28;20099;-65
2023/12/13 04:18:50;;;;;;;9.95;3.13;;;;;;;;;;5001829;28;20073;-66
2023/12/13 04:21:17;;;;;;;6.85;3.17;;;;;;;;;;4996150;28;20058;-66
2023/12/13 04:23:45;;;;;;;6.70;2.85;;;;;;;;;;4996793;28;20060;-67
2023/12/13 04:26:12;;;;;;;8.82;2.80;;;;;;;;;;4991444;28;20139;-67
2023/12/13 04:28:39;;;;;;;6.85;3.03;;;;;;;;;;4997108;28;20064;-67
2023/12/13 04:31:06;;;;;;;12.65;2.72;;;;;;;;;;4995750;28;20081;-65
2023/12/13 04:33:33;;;;;;;7.55;3.28;;;;;;;;;;4997431;28;20255;-66
2023/12/13 04:36:01;;;;;;;8.45;3.25;;;;;;;;;;4994485;28;20058;-66
2023/12/13 04:38:27;;;;;;;7.93;2.63;;;;;;;;;;4989817;28;20046;-67
2023/12/13 04:40:55;;;;;;;8.73;3.03;;;;;;;;;;4995952;28;20049;-67
2023/12/13 04:43:22;;;;;;;6.60;2.60;;;;;;;;;;4995631;28;20127;-65
2023/12/13 04:45:49;;;;;;;11.45;2.97;;;;;;;;;;4993367;28;20085;-67
2023/12/13 04:48:15;;;;;;;9.52;3.38;;;;;;;;;;4990397;28;20060;-67
2023/12/13 04:50:42;;;;;;;14.23;3.42;;;;;;;;;;4994980;28;20109;-66
2023/12/13 04:53:09;;;;;;;11.77;3.95;;;;;;;;;;4997738;28;20057;-66
2023/12/13 04:55:35;;;;;;;8.80;3.75;;;;;;;;;;4992677;28;20069;-66
2023/12/13 04:58:04;;;;;;;10.45;4.65;;;;;;;;;;4991808;28;20062;-66
2023/12/13 05:00:31;;;;;;;9.45;3.63;;;;;;;;;;4997785;28;20087;-67
2023/12/13 05:02:58;;;;;;;6.00;3.28;;;;;;;;;;4996736;28;20113;-65
2023/12/13 05:05:24;;;;;;;12.05;3.85;;;;;;;;;;4992977;28;20081;-65
2023/12/13 05:07:51;;;;;;;14.05;3.58;;;;;;;;;;4997808;28;20160;-66
2023/12/13 05:10:17;;;;;;;7.45;3.17;;;;;;;;;;4996439;28;20113;-66
2023/12/13 05:12:44;;;;;;;9.73;3.08;;;;;;;;;;4996096;28;20053;-65
2023/12/13 05:15:12;;;;;;;9.45;3.25;;;;;;;;;;4993909;28;20050;-64
2023/12/13 05:17:39;;;;;;;5.35;2.47;;;;;;;;;;4995500;28;20143;-66
2023/12/13 05:20:08;;;;;;;10.60;2.97;;;;;;;;;;4987459;28;20073;-65
2023/12/13 05:22:35;;;;;;;7.88;2.45;;;;;;;;;;4989096;28;20140;-67
2023/12/13 05:25:02;;;;;;;7.95;2.88;;;;;;;;;;4986061;28;20053;-65
2023/12/13 05:27:29;;;;;;;5.88;2.55;;;;;;;;;;4989688;28;20056;-67
2023/12/13 05:29:56;;;;;;;7.82;2.88;;;;;;;;;;4990375;28;20065;-66
2023/12/13 05:32:24;;;;;;;7.32;2.67;;;;;;;;;;4986176;28;20049;-66
2023/12/13 05:34:50;;;;;;;7.07;2.38;;;;;;;;;;4985579;28;20085;-67
2023/12/13 05:37:17;;;;;;;10.65;2.70;;;;;;;;;;4996951;28;20058;-67
2023/12/13 05:39:44;;;;;;;9.10;2.28;;;;;;;;;;4997364;28;20069;-65
2023/12/13 05:42:10;;;;;;;7.57;2.85;;;;;;;;;;4995613;28;20065;-66
2023/12/13 05:44:37;;;;;;;9.20;2.58;;;;;;;;;;4980141;28;20058;-65
2023/12/13 05:47:04;;;;;;;5.63;2.40;;;;;;;;;;4990055;28;20162;-67
2023/12/13 05:49:32;;;;;;;4.60;2.00;;;;;;;;;;4993892;28;20096;-65
2023/12/13 05:51:59;;;;;;;11.52;2.45;;;;;;;;;;4997250;28;20061;-65
2023/12/13 05:54:25;;;;;;;10.80;2.90;;;;;;;;;;4981791;28;20054;-67
2023/12/13 05:56:52;;;;;;;10.50;2.78;;;;;;;;;;4994687;28;20144;-66
2023/12/13 05:59:19;;;;;;;5.88;2.28;;;;;;;;;;4994339;28;20086;-67
2023/12/13 06:01:45;;;;;;;5.00;2.17;;;;;;;;;;4991945;28;20141;-68
2023/12/13 06:04:12;;;;;;;12.20;3.92;;;;;;;;;;4992618;28;20061;-66
2023/12/13 06:06:45;;;;;;;8.38;3.35;;;;;;;;;;4986601;28;20050;-68
2023/12/13 06:09:11;;;;;;;22.48;8.52;;;;;;;;;;4994718;28;20056;-66
2023/12/13 06:11:38;;;;;;;12.45;4.05;;;;;;;;;;4993502;28;20134;-68
2023/12/13 06:14:05;;;;;;;7.05;2.83;;;;;;;;;;4986188;28;20068;-67
2023/12/13 06:16:32;;;;;;;9.70;2.65;;;;;;;;;;4989780;28;20058;-66
2023/12/13 06:18:58;;;;;;;16.77;2.83;;;;;;;;;;4992940;28;20137;-67
2023/12/13 06:21:25;;;;;;;10.32;2.55;;;;;;;;;;4989807;28;20145;-66
2023/12/13 06:23:53;;;;;;;12.63;2.65;;;;;;;;;;4991187;28;20136;-66
2023/12/13 06:26:20;;;;;;;11.05;2.88;;;;;;;;;;4985774;28;20050;-66
2023/12/13 06:28:46;;;;;;;8.38;2.22;;;;;;;;;;4996503;28;20133;-67
2023/12/13 06:31:13;;;;;;;11.23;2.60;;;;;;;;;;4993824;28;20060;-68
2023/12/13 06:33:39;;;;;;;7.32;2.53;;;;;;;;;;4986496;28;20162;-67
2023/12/13 06:36:07;;;;;;;8.93;2.28;;;;;;;;;;4995282;28;20085;-67
2023/12/13 06:38:34;;;;;;;7.50;2.40;;;;;;;;;;4989772;28;20066;-68
2023/12/13 06:41:02;;;;;;;9.85;2.17;;;;;;;;;;4993033;28;20054;-67
2023/12/13 06:43:29;;;;;;;10.55;2.88;;;;;;;;;;4996213;28;20077;-69
2023/12/13 06:45:56;;;;;;;12.95;2.92;;;;;;;;;;4980149;28;20068;-66
2023/12/13 06:48:23;;;;;;;12.18;2.78;;;;;;;;;;4998454;28;20118;-66
2023/12/13 06:50:49;;;;;;;8.85;3.17;;;;;;;;;;4991946;28;20073;-66
2023/12/13 06:53:16;;;;;;;7.80;2.88;;;;;;;;;;4992542;28;20084;-67
2023/12/13 06:55:42;;;;;;;6.03;2.88;;;;;;;;;;4990315;28;20081;-66
2023/12/13 06:58:10;;;;;;;11.20;3.13;;;;;;;;;;4998416;28;20054;-67
2023/12/13 07:00:37;;;;;;;7.50;2.72;;;;;;;;;;4997428;28;20084;-67
2023/12/13 07:03:04;;;;;;;12.15;2.60;;;;;;;;;;4998406;28;20120;-66
2023/12/13 07:05:31;;;;;;;9.52;2.70;;;;;;;;;;4994958;28;20077;-67
2023/12/13 07:07:58;;;;;;;7.95;2.53;;;;;;;;;;4998660;28;20062;-66
2023/12/13 07:10:26;;;;;;;5.60;2.42;;;;;;;;;;4993235;28;20046;-68
2023/12/13 07:12:53;;;;;;;7.43;2.53;;;;;;;;;;4997848;28;20108;-67
2023/12/13 07:15:21;;;;;;;8.02;2.78;;;;;;;;;;4995748;28;20169;-66
2023/12/13 07:17:48;;;;;;;6.30;2.88;;;;;;;;;;4999227;28;20089;-66
2023/12/13 07:20:17;;;;;;;6.43;2.65;;;;;;;;;;4994350;28;20066;-66
2023/12/13 07:22:43;;;;;;;12.55;3.05;;;;;;;;;;4999381;28;20061;-67
2023/12/13 07:25:10;;;;;;;10.75;3.53;;;;;;;;;;4998144;28;20077;-65
2023/12/13 07:27:37;;;;;;;9.13;3.40;;;;;;;;;;5000011;28;20073;-67
2023/12/13 07:30:05;;;;;;;11.77;3.58;;;;;;;;;;4995245;28;20144;-65
2023/12/13 07:32:33;;;;;;;13.23;4.18;;;;;;;;;;4995855;28;20062;-67
2023/12/13 07:34:59;;;;;;;9.65;3.92;;;;;;;;;;4994452;28;20057;-67
2023/12/13 07:37:26;;;;;;;11.35;3.90;;;;;;;;;;4999344;28;20050;-65
2023/12/13 07:39:53;;;;;;;10.75;3.65;;;;;;;;;;4996889;28;20058;-65
2023/12/13 07:42:24;;;;;;;15.55;4.28;;;;;;;;;;4994826;28;20128;-66
2023/12/13 07:44:50;;;;;;;15.38;3.55;;;;;;;;;;4991956;28;20057;-65
2023/12/13 07:47:17;;;;;;;19.15;3.90;;;;;;;;;;4997733;28;20054;-64
2023/12/13 07:49:45;;;;;;;9.98;3.17;;;;;;;;;;5001793;28;20109;-67
2023/12/13 07:52:13;;;;;;;7.68;3.40;;;;;;;;;;4996059;28;20050;-64
2023/12/13 07:54:40;;;;;;;;;;;;;;;;;;4987939;28;20164;-67
2023/12/13 07:57:07;;;;;;;15.63;4.32;;;;;;;;;;4984948;28;19925;-66
2023/12/13 07:59:33;;;;;;;11.85;4.38;;;;;;;;;;4989268;28;20053;-65
2023/12/13 08:02:00;;;;;;;15.90;4.78;;;;;;;;;;4992245;28;20076;-66
2023/12/13 08:04:27;;;;;;;11.82;4.13;;;;;;;;;;4978199;28;21799;-65
2023/12/13 08:06:55;;;;;;;8.65;3.10;;;;;;;;;;5000086;28;20049;-65
2023/12/13 08:09:22;;;;;;;7.45;2.75;;;;;;;;;;4997643;28;20120;-65
2023/12/13 08:11:48;;;;;;;10.45;3.05;;;;;;;;;;4997782;28;20109;-65
2023/12/13 08:14:15;;;;;;;14.18;3.83;;;;;;;;;;4990902;28;20081;-67
2023/12/13 08:16:42;;;;;;;11.65;3.78;;;;;;;;;;4994765;28;20058;-65
2023/12/13 08:19:08;;;;;;;15.43;4.60;;;;;;;;;;5002345;28;20054;-66
2023/12/13 08:21:40;;;;;;;14.80;5.13;;;;;;;;;;4995628;28;20065;-66
2023/12/13 08:24:12;;;;;;;12.20;3.25;;;;;;;;;;4995540;28;20073;-66
2023/12/13 08:26:38;;;;;;;9.68;3.30;;;;;;;;;;5000570;28;20062;-66
2023/12/13 08:29:05;;;;;;;9.10;3.83;;;;;;;;;;4999789;28;20081;-64
2023/12/13 08:31:33;;;;;;;10.13;3.63;;;;;;;;;;4996674;28;20082;-65
2023/12/13 08:34:00;;;;;;;9.48;3.65;;;;;;;;;;4992051;28;20058;-65
2023/12/13 08:36:27;;;;;;;10.70;3.42;;;;;;;;;;4977757;28;20180;-64
2023/12/13 08:38:54;;;;;;;11.30;3.17;;;;;;;;;;4976546;28;20132;-66
2023/12/13 08:41:22;;;;;;;9.80;3.50;;;;;;;;;;4971011;28;20158;-65
2023/12/13 08:43:48;;;;;;;14.52;4.35;;;;;;;;;;4974915;28;20046;-65
2023/12/13 08:46:15;;;;;;;10.98;3.22;;;;;;;;;;4994904;28;20124;-66
2023/12/13 08:48:44;;;;;;;8.60;3.30;;;;;;;;;;4998599;28;20072;-65
2023/12/13 08:51:11;;;;;;;12.10;3.83;;;;;;;;;;4998365;28;20141;-65
2023/12/13 08:53:38;;;;;;;7.57;3.50;;;;;;;;;;4994719;28;20076;-65
2023/12/13 08:56:05;;;;;;;11.35;3.80;;;;;;;;;;4978084;28;20125;-65
2023/12/13 08:58:33;;;;;;;15.02;3.90;;;;;;;;;;4978608;28;21000;-65
2023/12/13 09:01:00;;;;;;;15.00;3.50;;;;;;;;;;4981007;28;20054;-66
2023/12/13 09:03:27;;;;;;;15.68;4.20;;;;;;;;;;4981186;28;20050;-65
2023/12/13 09:05:54;;;;;;;12.13;3.67;;;;;;;;;;4989984;28;20064;-65
2023/12/13 09:08:21;;;;;;;11.23;3.40;;;;;;;;;;4991230;28;20142;-65
2023/12/13 09:10:47;;;;;;;14.40;4.03;;;;;;;;;;4997447;28;20053;-66
2023/12/13 09:13:15;;;;;;;16.20;4.07;;;;;;;;;;4995778;28;20054;-65
2023/12/13 09:15:43;;;;;;;11.30;3.75;;;;;;;;;;4979409;28;20158;-67
2023/12/13 09:18:10;;;;;;;13.60;4.40;;;;;;;;;;4977001;28;20172;-65
2023/12/13 09:20:37;;;;;;;13.02;4.05;;;;;;;;;;4974258;28;20046;-66
2023/12/13 09:23:04;;;;;;;12.27;4.55;;;;;;;;;;4980159;28;20034;-66
2023/12/13 09:25:31;;;;;;;13.27;4.93;;;;;;;;;;4975523;28;20058;-66
2023/12/13 09:27:57;;;;;;;13.95;6.53;;;;;;;;;;4978964;28;20065;-66
2023/12/13 09:30:25;;;;;;;11.65;4.43;;;;;;;;;;4978053;28;20046;-65
2023/12/13 09:32:53;;;;;;;10.38;3.60;;;;;;;;;;4978529;28;20120;-66
2023/12/13 09:35:20;;;;;;;16.23;4.32;;;;;;;;;;4986209;28;20061;-66
2023/12/13 09:37:46;;;;;;;15.77;3.88;;;;;;;;;;4996536;28;20046;-65
2023/12/13 09:40:15;;;;;;;9.63;3.83;;;;;;;;;;4991749;28;20164;-67
2023/12/13 09:42:45;;;;;;;10.32;3.55;;;;;;;;;;5004062;28;20038;-67
2023/12/13 09:45:16;;;;;;;11.00;4.07;;;;;;;;;;4997474;28;20050;-67
2023/12/13 09:47:43;;;;;;;12.43;3.63;;;;;;;;;;5003671;28;20077;-66
2023/12/13 09:50:12;;;;;;;9.98;3.75;;;;;;;;;;4996600;28;20054;-66
2023/12/13 09:52:39;;;;;;;8.57;3.42;;;;;;;;;;5014774;28;20049;-66
2023/12/13 09:55:09;;;;;;;16.40;4.03;;;;;;;;;;4999074;28;20050;-66
2023/12/13 09:57:35;;;;;;;10.38;3.67;;;;;;;;;;5011579;28;20116;-66
2023/12/13 10:00:03;;;;;;;10.77;4.10;;;;;;;;;;5003651;28;20132;-65
2023/12/13 10:02:30;;;;;;;12.40;4.22;;;;;;;;;;4999829;28;20066;-66
2023/12/13 10:04:59;;;;;;;14.30;3.70;;;;;;;;;;5000002;28;20089;-66
2023/12/13 10:07:28;;;;;;;8.52;3.33;;;;;;;;;;5002167;28;20050;-64
2023/12/13 10:09:55;;;;;;;10.10;4.00;;;;;;;;;;5001219;28;20170;-65
2023/12/13 10:12:22;;;;;;;11.73;3.88;;;;;;;;;;4996502;28;20068;-67
2023/12/13 10:14:49;;;;;;;14.35;3.88;;;;;;;;;;4993960;28;20127;-67
2023/12/13 10:17:16;;;;;;;8.98;3.58;;;;;;;;;;5000296;28;20077;-67
2023/12/13 10:19:44;;;;;;;9.95;3.58;;;;;;;;;;4999533;28;20133;-68
2023/12/13 10:22:10;;;;;;;9.48;3.40;;;;;;;;;;4998607;28;20046;-66
2023/12/13 10:24:38;;;;;;;6.65;2.95;;;;;;;;;;4996143;28;20050;-67
2023/12/13 10:27:06;;;;;;;9.88;3.08;;;;;;;;;;5000491;28;20144;-66
2023/12/13 10:29:32;;;;;;;7.60;2.90;;;;;;;;;;4998175;28;20204;-66
2023/12/13 10:31:59;;;;;;;6.55;2.85;;;;;;;;;;4999391;28;20058;-67
2023/12/13 10:34:26;;;;;;;8.63;3.20;;;;;;;;;;4987053;28;20057;-67
2023/12/13 10:36:55;;;;;;;10.93;3.47;;;;;;;;;;5013504;28;20136;-65
2023/12/13 10:39:24;;;;;;;9.23;3.13;;;;;;;;;;5001990;28;20143;-67
2023/12/13 10:41:56;;;;;;;6.82;2.60;;;;;;;;;;4999828;28;20085;-66
2023/12/13 10:44:24;;;;;;;6.47;3.00;;;;;;;;;;4995492;28;20275;-67
2023/12/13 10:46:56;;;;;;;8.48;3.13;;;;;;;;;;5000902;28;20058;-65
2023/12/13 10:49:23;;;;;;;9.75;3.42;;;;;;;;;;4998977;28;20057;-66
2023/12/13 10:51:51;;;;;;;8.32;3.45;;;;;;;;;;5001164;28;20054;-66
2023/12/13 10:54:18;;;;;;;7.00;2.88;;;;;;;;;;4991725;28;20133;-67
2023/12/13 10:56:45;;;;;;;7.35;3.30;;;;;;;;;;5015017;28;20104;-67
2023/12/13 10:59:15;;;;;;;12.23;3.45;;;;;;;;;;5002037;28;20049;-67
2023/12/13 11:01:43;;;;;;;8.18;3.40;;;;;;;;;;5001682;28;20069;-65
2023/12/13 11:04:12;;;;;;;8.18;3.63;;;;;;;;;;4992199;28;20062;-66
2023/12/13 11:06:42;;;;;;;9.50;3.42;;;;;;;;;;5010508;28;20050;-65
2023/12/13 11:09:13;;;;;;;11.60;4.00;;;;;;;;;;4999581;28;20061;-66
2023/12/13 11:11:40;;;;;;;7.57;3.58;;;;;;;;;;5000032;28;20122;-67
2023/12/13 11:14:08;;;;;;;10.35;4.18;;;;;;;;;;4994086;28;20068;-66
2023/12/13 11:16:42;;;;;;;9.50;4.05;;;;;;;;;;4998056;28;20193;-66
2023/12/13 11:19:12;;;;;;;10.07;3.72;;;;;;;;;;4999388;28;20064;-66
2023/12/13 11:21:41;;;;;;;14.55;4.32;;;;;;;;;;5000479;28;20054;-68
2023/12/13 11:24:13;;;;;;;9.10;3.95;;;;;;;;;;4994154;28;20053;-66
2023/12/13 11:26:42;;;;;;;9.77;3.85;;;;;;;;;;5001288;28;20058;-68
2023/12/13 11:29:15;;;;;;;;;;;;;;;;;;5000728;28;20060;-66
2023/12/13 11:31:51;;;;;;;8.55;3.35;;;;;;;;;;5012874;28;19926;-67
2023/12/13 11:34:19;;;;;;;8.05;3.25;;;;;;;;;;4990042;28;20137;-67
2023/12/13 11:36:46;;;;;;;13.45;3.92;;;;;;;;;;4997759;28;20121;-66
2023/12/13 11:39:14;;;;;;;9.63;3.85;;;;;;;;;;4999586;28;20045;-66
2023/12/13 11:41:42;;;;;;;14.30;4.15;;;;;;;;;;4998932;28;20061;-66
2023/12/13 11:44:11;;;;;;;9.38;3.83;;;;;;;;;;5007090;28;20113;-68
2023/12/13 11:46:37;;;;;;;12.00;3.72;;;;;;;;;;4983014;28;20058;-67
2023/12/13 11:49:05;;;;;;;11.38;4.05;;;;;;;;;;4982551;28;20082;-68
2023/12/13 11:51:32;;;;;;;10.70;4.15;;;;;;;;;;4980828;28;20046;-67
2023/12/13 11:54:00;;;;;;;11.57;3.95;;;;;;;;;;4988296;28;20089;-67
2023/12/13 11:56:27;;;;;;;15.27;3.80;;;;;;;;;;4996492;28;20073;-67
2023/12/13 11:58:53;;;;;;;10.77;3.97;;;;;;;;;;5000942;28;20066;-66
2023/12/13 12:01:20;;;;;;;14.80;4.30;;;;;;;;;;5001320;28;20054;-67
2023/12/13 12:03:47;;;;;;;10.65;3.97;;;;;;;;;;4990954;28;20053;-66
2023/12/13 12:06:18;;;;;;;10.63;4.70;;;;;;;;;;4992959;28;20058;-69
2023/12/13 12:08:46;;;;;;;12.40;4.30;;;;;;;;;;4980466;28;20050;-66
2023/12/13 12:11:14;;;;;;;9.25;3.92;;;;;;;;;;4980890;28;20054;-65
2023/12/13 12:13:42;;;;;;;12.17;4.80;;;;;;;;;;4973548;28;20133;-66
2023/12/13 12:16:11;;;;;;;9.77;4.32;;;;;;;;;;4995415;28;20113;-65
2023/12/13 12:18:39;;;;;;;10.73;4.57;;;;;;;;;;4986595;28;20056;-67
2023/12/13 12:21:08;;;;;;;11.65;4.82;;;;;;;;;;4997398;28;20210;-66
2023/12/13 12:23:38;;;;;;;18.70;4.88;;;;;;;;;;4994962;28;20045;-65
2023/12/13 12:26:08;;;;;;;12.73;4.68;;;;;;;;;;4992434;28;20061;-66
2023/12/13 12:28:35;;;;;;;14.38;5.35;;;;;;;;;;4998903;28;20065;-65
2023/12/13 12:31:02;;;;;;;10.57;4.75;;;;;;;;;;4988579;28;20102;-67
2023/12/13 12:33:29;;;;;;;16.60;4.53;;;;;;;;;;4999036;28;20073;-66
2023/12/13 12:35:55;;;;;;;11.07;4.43;;;;;;;;;;4992967;28;20053;-67
2023/12/13 12:38:22;;;;;;;14.25;4.88;;;;;;;;;;4994374;28;20076;-67
2023/12/13 12:40:50;;;;;;;18.30;5.45;;;;;;;;;;4995604;28;20148;-68
2023/12/13 12:43:19;;;;;;;11.75;4.72;;;;;;;;;;4996227;28;20115;-66
2023/12/13 12:45:46;;;;;;;11.38;4.53;;;;;;;;;;4980168;28;20049;-68
2023/12/13 12:48:14;;;;;;;12.80;4.10;;;;;;;;;;4971085;28;20057;-66
2023/12/13 12:50:40;;;;;;;12.40;4.53;;;;;;;;;;4984755;28;20101;-67
2023/12/13 12:53:08;;;;;;;10.32;4.25;;;;;;;;;;4981324;28;20108;-67
2023/12/13 12:55:35;;;;;;;9.65;4.18;;;;;;;;;;4981679;28;20046;-67
2023/12/13 12:58:04;;;;;;;9.38;4.07;;;;;;;;;;4983246;28;20081;-65
2023/12/13 13:00:31;;;;;;;9.85;3.92;;;;;;;;;;4981842;28;20060;-65
2023/12/13 13:03:00;;;;;;;9.93;4.32;;;;;;;;;;4989941;28;20065;-66
2023/12/13 13:05:26;;;;;;;;;;;;;;;;;;4987686;28;20057;-66
2023/12/13 13:07:53;;;;;;;10.95;3.85;;;;;;;;;;4998430;28;19993;-66
2023/12/13 13:10:20;;;;;;;10.18;4.32;;;;;;;;;;4991770;28;20058;-66
2023/12/13 13:12:47;;;;;;;9.98;4.55;;;;;;;;;;4997822;28;20165;-66
2023/12/13 13:15:15;;;;;;;11.52;5.35;;;;;;;;;;4977934;28;20058;-66
2023/12/13 13:17:41;;;;;;;14.27;5.18;;;;;;;;;;4982476;28;20093;-68
2023/12/13 13:20:12;;;;;;;13.88;4.82;;;;;;;;;;4975320;28;20062;-67
2023/12/13 13:22:40;;;;;;;11.68;4.78;;;;;;;;;;4970253;28;20054;-65
2023/12/13 13:25:09;;;;;;;10.68;4.05;;;;;;;;;;4973173;28;20050;-66
2023/12/13 13:27:36;;;;;;;11.73;4.82;;;;;;;;;;4978865;28;20054;-66
2023/12/13 13:30:07;;;;;;;10.77;4.43;;;;;;;;;;4981810;28;20054;-65
2023/12/13 13:32:35;;;;;;;14.20;4.60;;;;;;;;;;4974299;28;20061;-66
2023/12/13 13:35:02;;;;;;;15.57;4.72;;;;;;;;;;4984053;28;20061;-67
2023/12/13 13:37:28;;;;;;;15.40;4.82;;;;;;;;;;4998963;28;20480;-68
2023/12/13 13:39:55;;;;;;;12.95;4.63;;;;;;;;;;4995725;28;20053;-67
2023/12/13 13:42:23;;;;;;;11.95;5.00;;;;;;;;;;4991938;28;20066;-66
2023/12/13 13:44:50;;;;;;;15.52;4.80;;;;;;;;;;4991254;28;20060;-66
2023/12/13 13:47:17;;;;;;;10.95;4.70;;;;;;;;;;4995136;28;20081;-66
2023/12/13 13:49:45;;;;;;;11.43;5.20;;;;;;;;;;4998767;28;20136;-65
2023/12/13 13:52:12;;;;;;;12.27;4.75;;;;;;;;;;4994349;28;20108;-65
2023/12/13 13:54:39;;;;;;;14.73;5.18;;;;;;;;;;4992196;28;20054;-66
2023/12/13 13:57:08;;;;;;;15.55;5.07;;;;;;;;;;5001225;28;20057;-65
2023/12/13 13:59:35;;;;;;;11.85;5.32;;;;;;;;;;4995102;28;20068;-67
2023/12/13 14:02:02;;;;;;;15.60;5.10;;;;;;;;;;4998225;28;20114;-68
2023/12/13 14:04:29;;;;;;;16.60;5.38;;;;;;;;;;4990516;28;20057;-66
2023/12/13 14:06:57;;;;;;;15.07;5.60;;;;;;;;;;4994105;28;20054;-67
2023/12/13 14:09:24;;;;;;;11.73;5.00;;;;;;;;;;4999135;28;20072;-67
2023/12/13 14:11:51;;;;;;;11.02;5.00;;;;;;;;;;4994395;28;20073;-67
2023/12/13 14:14:19;;;;;;;19.85;8.38;;;;;;;;;;4991835;28;20119;-68
2023/12/13 14:16:46;;;;;;;21.05;9.10;;;;;;;;;;4996354;28;20050;-67
2023/12/13 14:19:13;;;;;;;19.38;7.97;;;;;;;;;;4999930;28;20140;-68
2023/12/13 14:21:40;;;;;;;14.90;5.78;;;;;;;;;;4998091;28;20054;-67
2023/12/13 14:24:09;;;;;;;15.70;5.88;;;;;;;;;;4986901;28;20109;-65
2023/12/13 14:26:35;;;;;;;17.33;5.38;;;;;;;;;;4980106;28;20417;-67
2023/12/13 14:29:14;;;;;;;18.10;5.28;;;;;;;;;;4980912;28;20054;-66
2023/12/13 14:31:41;;;;;;;18.85;6.30;;;;;;;;;;4992495;28;20076;-65
2023/12/13 14:34:10;;;;;;;15.27;7.05;;;;;;;;;;4975014;28;20061;-67
2023/12/13 14:36:37;;;;;;;19.77;9.25;;;;;;;;;;4979860;28;20054;-67
2023/12/13 14:39:05;;;;;;;20.55;7.68;;;;;;;;;;4981764;28;20144;-66